createdAt,value
2023-12-20T00:00:36.662Z,25.13
2023-12-20T00:01:36.636Z,25.15
2023-12-20T00:02:36.660Z,25.15
2023-12-20T00:03:42.054Z,25.13
2023-12-20T00:04:37.860Z,25.13
2023-12-20T00:05:36.770Z,25.16
2023-12-20T00:06:36.929Z,25.13
2023-12-20T00:07:37.042Z,25.13
2023-12-20T00:08:36.792Z,25.12
2023-12-20T00:09:36.895Z,25.15
2023-12-20T00:10:36.904Z,25.15
2023-12-20T00:11:36.889Z,25.13
2023-12-20T00:12:36.991Z,25.11
2023-12-20T00:13:36.948Z,25.12
2023-12-20T00:14:36.991Z,25.11
2023-12-20T00:15:37.134Z,25.12
2023-12-20T00:16:37.097Z,25.13
2023-12-20T00:17:37.141Z,25.11
2023-12-20T00:18:37.120Z,25.11
2023-12-20T00:19:37.306Z,25.11
2023-12-20T00:20:37.289Z,25.09
2023-12-20T00:21:37.308Z,25.12
2023-12-20T00:22:37.212Z,25.09
2023-12-20T00:23:37.273Z,25.12
2023-12-20T00:24:37.329Z,25.11
2023-12-20T00:25:37.279Z,25.09
2023-12-20T00:26:37.332Z,25.09
2023-12-20T00:27:37.340Z,25.11
2023-12-20T00:28:37.352Z,25.11
2023-12-20T00:29:37.357Z,25.11
2023-12-20T00:30:37.562Z,25.09
2023-12-20T00:31:37.447Z,25.09
2023-12-20T00:32:37.514Z,25.11
2023-12-20T00:33:37.565Z,25.11
2023-12-20T00:34:37.503Z,25.09
2023-12-20T00:35:37.523Z,25.09
2023-12-20T00:36:37.585Z,25.09
2023-12-20T00:37:37.616Z,25.11
2023-12-20T00:38:37.690Z,25.09
2023-12-20T00:39:37.733Z,25.09
2023-12-20T00:40:37.791Z,25.11
2023-12-20T00:41:37.826Z,25.09
2023-12-20T00:42:37.848Z,25.09
2023-12-20T00:43:37.898Z,25.06
2023-12-20T00:44:37.944Z,25.08
2023-12-20T00:45:38.001Z,25.06
2023-12-20T00:46:38.101Z,25.09
2023-12-20T00:47:38.067Z,25.09
2023-12-20T00:48:38.114Z,25.06
2023-12-20T00:49:38.200Z,25.11
2023-12-20T00:50:38.187Z,25.11
2023-12-20T00:51:38.249Z,25.11
2023-12-20T00:52:38.272Z,25.09
2023-12-20T00:53:38.338Z,25.11
2023-12-20T00:54:38.432Z,25.11
2023-12-20T00:55:38.413Z,25.13
2023-12-20T00:56:38.495Z,25.13
2023-12-20T00:57:38.611Z,25.15
2023-12-20T00:58:38.559Z,25.12
2023-12-20T00:59:38.615Z,25.18
2023-12-20T01:00:40.530Z,25.16
2023-12-20T01:01:38.753Z,25.18
2023-12-20T01:02:38.739Z,25.19
2023-12-20T01:03:38.956Z,25.21
2023-12-20T01:04:38.829Z,25.22
2023-12-20T01:05:38.827Z,25.23
2023-12-20T01:06:38.884Z,25.25
2023-12-20T01:07:38.836Z,25.23
2023-12-20T01:08:38.899Z,25.28
2023-12-20T01:09:38.943Z,25.26
2023-12-20T01:10:38.936Z,25.30
2023-12-20T01:11:38.933Z,25.33
2023-12-20T01:12:39.030Z,25.34
2023-12-20T01:13:39.012Z,25.34
2023-12-20T01:14:39.001Z,25.39
2023-12-20T01:15:39.160Z,25.39
2023-12-20T01:16:39.082Z,25.42
2023-12-20T01:17:39.253Z,25.44
2023-12-20T01:18:39.199Z,25.46
2023-12-20T01:19:39.223Z,25.47
2023-12-20T01:20:39.174Z,25.49
2023-12-20T01:21:39.237Z,25.49
2023-12-20T01:22:39.216Z,25.52
2023-12-20T01:23:39.218Z,25.56
2023-12-20T01:24:39.283Z,25.56
2023-12-20T01:25:39.298Z,25.59
2023-12-20T01:26:39.325Z,25.60
2023-12-20T01:27:39.392Z,25.64
2023-12-20T01:28:39.356Z,25.66
2023-12-20T01:29:39.344Z,25.69
2023-12-20T01:30:39.599Z,25.69
2023-12-20T01:31:39.484Z,25.72
2023-12-20T01:32:39.458Z,25.73
2023-12-20T01:33:39.574Z,25.76
2023-12-20T01:34:39.616Z,25.77
2023-12-20T01:35:39.525Z,25.80
2023-12-20T01:36:39.648Z,25.80
2023-12-20T01:37:39.646Z,25.83
2023-12-20T01:38:39.702Z,25.83
2023-12-20T01:39:39.768Z,25.85
2023-12-20T01:40:39.821Z,25.88
2023-12-20T01:41:39.873Z,25.91
2023-12-20T01:42:39.948Z,25.93
2023-12-20T01:43:47.137Z,25.93
2023-12-20T01:44:41.010Z,25.94
2023-12-20T01:45:40.018Z,25.97
2023-12-20T01:46:39.988Z,25.98
2023-12-20T01:47:40.045Z,25.93
2023-12-20T01:48:40.030Z,25.97
2023-12-20T01:49:40.092Z,26.03
2023-12-20T01:50:40.058Z,25.98
2023-12-20T01:51:40.124Z,25.98
2023-12-20T01:52:40.059Z,26.01
2023-12-20T01:53:40.096Z,26.03
2023-12-20T01:54:40.098Z,26.04
2023-12-20T01:55:40.136Z,26.04
2023-12-20T01:56:40.144Z,26.04
2023-12-20T01:57:40.198Z,26.04
2023-12-20T01:58:40.175Z,26.05
2023-12-20T01:59:40.185Z,26.08
2023-12-20T02:00:40.259Z,26.09
2023-12-20T02:01:40.251Z,26.08
2023-12-20T02:02:40.199Z,26.09
2023-12-20T02:03:40.290Z,26.11
2023-12-20T02:04:40.315Z,26.12
2023-12-20T02:05:40.260Z,26.11
2023-12-20T02:06:40.323Z,26.12
2023-12-20T02:07:40.380Z,26.12
2023-12-20T02:08:40.290Z,26.14
2023-12-20T02:09:40.356Z,26.15
2023-12-20T02:10:40.426Z,26.17
2023-12-20T02:11:40.404Z,26.15
2023-12-20T02:12:40.496Z,26.17
2023-12-20T02:13:40.485Z,26.18
2023-12-20T02:14:40.517Z,26.18
2023-12-20T02:15:40.575Z,26.17
2023-12-20T02:16:40.564Z,26.20
2023-12-20T02:17:40.664Z,26.18
2023-12-20T02:18:40.685Z,26.24
2023-12-20T02:19:40.790Z,26.21
2023-12-20T02:20:40.709Z,26.21
2023-12-20T02:21:40.740Z,26.24
2023-12-20T02:22:40.769Z,26.24
2023-12-20T02:23:40.761Z,26.27
2023-12-20T02:24:40.836Z,26.24
2023-12-20T02:25:40.837Z,26.25
2023-12-20T02:26:42.787Z,26.24
2023-12-20T02:27:40.879Z,26.25
2023-12-20T02:28:40.864Z,26.27
2023-12-20T02:29:40.916Z,26.28
2023-12-20T02:30:40.979Z,26.27
2023-12-20T02:31:40.915Z,26.27
2023-12-20T02:32:40.959Z,26.27
2023-12-20T02:33:40.970Z,26.25
2023-12-20T02:34:41.044Z,26.27
2023-12-20T02:35:40.946Z,26.30
2023-12-20T02:36:40.981Z,26.27
2023-12-20T02:37:41.042Z,26.30
2023-12-20T02:38:40.992Z,26.28
2023-12-20T02:39:41.045Z,26.32
2023-12-20T02:40:41.045Z,26.31
2023-12-20T02:41:42.080Z,26.31
2023-12-20T02:42:41.093Z,26.32
2023-12-20T02:43:41.086Z,26.30
2023-12-20T02:44:41.129Z,26.34
2023-12-20T02:45:41.094Z,26.31
2023-12-20T02:46:41.156Z,26.34
2023-12-20T02:47:41.203Z,26.35
2023-12-20T02:48:41.182Z,26.34
2023-12-20T02:49:41.246Z,26.34
2023-12-20T02:50:41.135Z,26.32
2023-12-20T02:51:41.192Z,26.32
2023-12-20T02:52:41.195Z,26.35
2023-12-20T02:53:41.230Z,26.34
2023-12-20T02:54:41.261Z,26.34
2023-12-20T02:55:41.197Z,26.34
2023-12-20T02:56:41.220Z,26.34
2023-12-20T02:57:41.274Z,26.32
2023-12-20T02:58:41.233Z,26.36
2023-12-20T02:59:41.260Z,26.35
2023-12-20T03:00:41.411Z,26.34
2023-12-20T03:01:41.389Z,26.31
2023-12-20T03:02:41.311Z,26.36
2023-12-20T03:03:41.339Z,26.35
2023-12-20T03:04:41.429Z,26.35
2023-12-20T03:05:41.400Z,26.38
2023-12-20T03:06:41.471Z,26.35
2023-12-20T03:07:41.381Z,26.39
2023-12-20T03:08:41.338Z,26.39
2023-12-20T03:09:53.933Z,26.38
2023-12-20T03:10:42.428Z,26.38
2023-12-20T03:11:41.396Z,26.41
2023-12-20T03:12:41.407Z,26.39
2023-12-20T03:13:41.433Z,26.39
2023-12-20T03:14:41.418Z,26.39
2023-12-20T03:15:41.487Z,26.41
2023-12-20T03:16:41.449Z,26.41
2023-12-20T03:17:41.480Z,26.39
2023-12-20T03:18:41.556Z,26.44
2023-12-20T03:19:41.505Z,26.44
2023-12-20T03:20:41.523Z,26.44
2023-12-20T03:21:41.535Z,26.42
2023-12-20T03:22:41.522Z,26.44
2023-12-20T03:23:41.503Z,26.44
2023-12-20T03:24:41.529Z,26.44
2023-12-20T03:25:41.544Z,26.45
2023-12-20T03:26:41.575Z,26.45
2023-12-20T03:27:41.602Z,26.46
2023-12-20T03:28:41.578Z,26.45
2023-12-20T03:29:41.581Z,26.45
2023-12-20T03:30:41.639Z,26.46
2023-12-20T03:31:41.614Z,26.48
2023-12-20T03:33:21.424Z,26.42
2023-12-20T03:34:21.565Z,26.45
2023-12-20T03:35:21.522Z,26.49
2023-12-20T03:36:21.618Z,26.48
2023-12-20T03:37:21.832Z,26.48
2023-12-20T03:38:21.831Z,26.51
2023-12-20T03:39:21.933Z,26.51
2023-12-20T03:40:22.110Z,26.51
2023-12-20T03:41:22.125Z,26.49
2023-12-20T03:42:22.193Z,26.51
2023-12-20T03:43:22.352Z,26.51
2023-12-20T03:44:22.398Z,26.55
2023-12-20T03:45:22.506Z,26.53
2023-12-20T03:46:22.691Z,26.52
2023-12-20T03:47:22.726Z,26.53
2023-12-20T03:48:22.838Z,26.53
2023-12-20T03:49:22.931Z,26.55
2023-12-20T03:50:23.052Z,26.55
2023-12-20T03:51:23.098Z,26.55
2023-12-20T03:52:23.220Z,26.58
2023-12-20T03:53:23.277Z,26.58
2023-12-20T03:54:23.373Z,26.56
2023-12-20T03:55:23.496Z,26.58
2023-12-20T03:56:23.564Z,26.58
2023-12-20T03:57:23.615Z,26.55
2023-12-20T03:58:23.784Z,26.60
2023-12-20T03:59:23.807Z,26.56
2023-12-20T04:00:23.901Z,26.59
2023-12-20T04:01:24.023Z,26.59
2023-12-20T04:02:24.083Z,26.58
2023-12-20T04:03:24.177Z,26.60
2023-12-20T04:04:24.374Z,26.63
2023-12-20T04:05:24.480Z,26.59
2023-12-20T04:06:24.650Z,26.60
2023-12-20T04:07:24.637Z,26.60
2023-12-20T04:08:24.640Z,26.58
2023-12-20T04:09:24.708Z,26.62
2023-12-20T04:10:24.826Z,26.63
2023-12-20T04:11:24.925Z,26.62
2023-12-20T04:12:25.004Z,26.63
2023-12-20T04:13:25.108Z,26.62
2023-12-20T04:14:25.175Z,26.63
2023-12-20T04:15:25.240Z,26.63
2023-12-20T04:16:25.432Z,26.65
2023-12-20T04:17:25.453Z,26.65
2023-12-20T04:18:25.606Z,26.65
2023-12-20T04:19:25.690Z,26.65
2023-12-20T04:20:25.700Z,26.66
2023-12-20T04:21:25.795Z,26.68
2023-12-20T04:22:25.915Z,26.66
2023-12-20T04:23:25.989Z,26.65
2023-12-20T04:24:26.020Z,26.65
2023-12-20T04:25:26.175Z,26.66
2023-12-20T04:26:26.200Z,26.68
2023-12-20T04:27:26.329Z,26.66
2023-12-20T04:28:26.438Z,26.66
2023-12-20T04:29:26.476Z,26.65
2023-12-20T04:30:26.627Z,26.66
2023-12-20T04:31:33.838Z,26.62
2023-12-20T04:32:33.859Z,26.63
2023-12-20T04:33:33.849Z,26.63
2023-12-20T04:34:33.894Z,26.63
2023-12-20T04:35:33.847Z,26.63
2023-12-20T04:36:33.860Z,26.66
2023-12-20T04:37:33.851Z,26.65
2023-12-20T04:38:33.816Z,26.66
2023-12-20T04:39:33.822Z,26.65
2023-12-20T04:40:33.962Z,26.65
2023-12-20T04:41:33.897Z,26.63
2023-12-20T04:42:33.937Z,26.63
2023-12-20T04:43:33.921Z,26.63
2023-12-20T04:44:33.882Z,26.62
2023-12-20T04:45:33.928Z,26.60
2023-12-20T04:46:33.902Z,26.62
2023-12-20T04:47:33.952Z,26.62
2023-12-20T04:48:33.996Z,26.59
2023-12-20T04:49:34.003Z,26.60
2023-12-20T04:50:33.931Z,26.59
2023-12-20T04:51:33.912Z,26.58
2023-12-20T04:52:33.912Z,26.56
2023-12-20T04:53:33.951Z,26.58
2023-12-20T04:54:33.946Z,26.58
2023-12-20T04:55:34.083Z,26.56
2023-12-20T04:56:33.969Z,26.55
2023-12-20T04:57:33.965Z,26.55
2023-12-20T04:58:34.102Z,26.55
2023-12-20T04:59:33.989Z,26.53
2023-12-20T05:00:34.129Z,26.53
2023-12-20T05:01:34.177Z,26.52
2023-12-20T05:02:34.081Z,26.51
2023-12-20T05:03:34.077Z,26.49
2023-12-20T05:04:34.202Z,26.49
2023-12-20T05:05:34.288Z,26.51
2023-12-20T05:06:34.177Z,26.46
2023-12-20T05:07:34.338Z,26.45
2023-12-20T05:08:34.157Z,26.45
2023-12-20T05:09:34.158Z,26.45
2023-12-20T05:10:34.146Z,26.45
2023-12-20T05:11:34.173Z,26.45
2023-12-20T05:12:34.188Z,26.45
2023-12-20T05:13:41.808Z,26.44
2023-12-20T05:14:35.263Z,26.42
2023-12-20T05:15:34.249Z,26.39
2023-12-20T05:16:34.263Z,26.39
2023-12-20T05:17:34.276Z,26.41
2023-12-20T05:18:34.299Z,26.38
2023-12-20T05:19:34.404Z,26.38
2023-12-20T05:20:34.350Z,26.35
2023-12-20T05:21:34.295Z,26.36
2023-12-20T05:22:34.320Z,26.36
2023-12-20T05:23:34.323Z,26.36
2023-12-20T05:24:34.345Z,26.34
2023-12-20T05:25:34.431Z,26.35
2023-12-20T05:26:34.335Z,26.36
2023-12-20T05:27:34.370Z,26.34
2023-12-20T05:28:34.443Z,26.34
2023-12-20T05:29:34.405Z,26.34
2023-12-20T05:30:34.402Z,26.32
2023-12-20T05:31:34.467Z,26.31
2023-12-20T05:32:34.460Z,26.31
2023-12-20T05:33:34.480Z,26.28
2023-12-20T05:34:34.609Z,26.30
2023-12-20T05:35:34.509Z,26.28
2023-12-20T05:36:34.431Z,26.30
2023-12-20T05:37:34.482Z,26.27
2023-12-20T05:38:34.526Z,26.25
2023-12-20T05:39:34.499Z,26.28
2023-12-20T05:40:34.508Z,26.28
2023-12-20T05:41:34.467Z,26.27
2023-12-20T05:42:34.521Z,26.27
2023-12-20T05:43:34.531Z,26.28
2023-12-20T05:44:34.543Z,26.27
2023-12-20T05:45:34.536Z,26.25
2023-12-20T05:46:34.574Z,26.25
2023-12-20T05:47:34.623Z,26.25
2023-12-20T05:48:34.615Z,26.25
2023-12-20T05:49:34.697Z,26.24
2023-12-20T05:50:34.681Z,26.24
2023-12-20T05:51:34.686Z,26.25
2023-12-20T05:52:34.704Z,26.22
2023-12-20T05:53:34.700Z,26.27
2023-12-20T05:54:34.751Z,26.24
2023-12-20T05:55:34.839Z,26.22
2023-12-20T05:56:34.769Z,26.24
2023-12-20T05:57:34.782Z,26.24
2023-12-20T05:58:34.881Z,26.24
2023-12-20T05:59:34.825Z,26.21
2023-12-20T06:00:34.936Z,26.21
2023-12-20T06:01:57.592Z,26.22
2023-12-20T06:02:34.964Z,26.21
2023-12-20T06:03:34.970Z,26.22
2023-12-20T06:04:35.170Z,26.22
2023-12-20T06:05:35.143Z,26.25
2023-12-20T06:06:35.073Z,26.20
2023-12-20T06:07:35.134Z,26.22
2023-12-20T06:08:35.075Z,26.20
2023-12-20T06:09:35.068Z,26.20
2023-12-20T06:10:35.096Z,26.21
2023-12-20T06:11:35.117Z,26.20
2023-12-20T06:12:35.135Z,26.20
2023-12-20T06:13:35.155Z,26.21
2023-12-20T06:14:35.119Z,26.21
2023-12-20T06:15:35.163Z,26.21
2023-12-20T06:16:35.177Z,26.20
2023-12-20T06:17:35.220Z,26.18
2023-12-20T06:18:35.311Z,26.18
2023-12-20T06:19:35.365Z,26.22
2023-12-20T06:20:35.226Z,26.20
2023-12-20T06:21:35.252Z,26.21
2023-12-20T06:22:35.306Z,26.20
2023-12-20T06:23:35.271Z,26.18
2023-12-20T06:24:35.255Z,26.17
2023-12-20T06:25:35.304Z,26.18
2023-12-20T06:26:35.284Z,26.18
2023-12-20T06:27:35.290Z,26.20
2023-12-20T06:28:35.328Z,26.20
2023-12-20T06:29:35.308Z,26.20
2023-12-20T06:30:35.367Z,26.21
2023-12-20T06:31:35.508Z,26.18
2023-12-20T06:32:35.354Z,26.17
2023-12-20T06:33:35.333Z,26.04
2023-12-20T06:34:35.507Z,25.93
2023-12-20T06:35:37.201Z,25.83
2023-12-20T06:36:36.021Z,25.73
2023-12-20T06:37:35.610Z,25.57
2023-12-20T06:38:35.706Z,25.49
2023-12-20T06:39:35.788Z,25.42
2023-12-20T06:40:35.921Z,25.34
2023-12-20T06:41:36.035Z,25.33
2023-12-20T06:42:43.145Z,25.33
2023-12-20T06:43:46.226Z,25.33
2023-12-20T06:44:37.154Z,25.34
2023-12-20T06:45:36.177Z,25.33
2023-12-20T06:46:59.055Z,25.36
2023-12-20T06:47:36.183Z,25.44
2023-12-20T06:48:36.237Z,25.50
2023-12-20T06:49:36.287Z,25.54
2023-12-20T06:50:36.211Z,25.59
2023-12-20T06:51:36.564Z,25.63
2023-12-20T06:52:36.292Z,25.63
2023-12-20T06:53:36.263Z,25.67
2023-12-20T06:54:36.292Z,25.67
2023-12-20T06:55:36.317Z,25.69
2023-12-20T06:56:36.354Z,25.72
2023-12-20T06:57:36.367Z,25.76
2023-12-20T06:58:36.450Z,25.81
2023-12-20T06:59:36.438Z,25.88
2023-12-20T07:00:36.588Z,25.91
2023-12-20T07:01:36.541Z,25.98
2023-12-20T07:02:36.605Z,26.03
2023-12-20T07:03:36.611Z,26.05
2023-12-20T07:04:36.724Z,26.01
2023-12-20T07:05:36.789Z,26.04
2023-12-20T07:06:37.055Z,26.03
2023-12-20T07:07:37.632Z,26.08
2023-12-20T07:08:36.887Z,26.09
2023-12-20T07:09:36.847Z,26.14
2023-12-20T07:10:36.876Z,26.15
2023-12-20T07:11:37.073Z,26.20
2023-12-20T07:12:36.948Z,26.20
2023-12-20T07:13:37.082Z,26.24
2023-12-20T07:14:37.020Z,26.27
2023-12-20T07:15:36.988Z,26.28
2023-12-20T07:16:37.037Z,26.31
2023-12-20T07:17:37.028Z,26.34
2023-12-20T07:18:37.081Z,26.35
2023-12-20T07:19:37.131Z,26.39
2023-12-20T07:20:37.032Z,26.41
2023-12-20T07:21:37.021Z,26.44
2023-12-20T07:22:37.072Z,26.44
2023-12-20T07:23:37.062Z,26.46
2023-12-20T07:24:37.379Z,26.45
2023-12-20T07:25:37.187Z,26.49
2023-12-20T07:26:37.170Z,26.51
2023-12-20T07:27:37.577Z,26.56
2023-12-20T07:28:37.336Z,26.56
2023-12-20T07:29:37.320Z,26.58
2023-12-20T07:30:37.458Z,26.58
2023-12-20T07:31:37.503Z,26.59
2023-12-20T07:32:38.137Z,26.63
2023-12-20T07:33:39.318Z,26.63
2023-12-20T07:34:38.285Z,26.66
2023-12-20T07:35:38.150Z,26.69
2023-12-20T07:36:38.035Z,26.62
2023-12-20T07:37:38.112Z,26.51
2023-12-20T07:38:38.071Z,26.03
2023-12-20T07:39:38.224Z,25.70
2023-12-20T07:40:38.268Z,25.52
2023-12-20T07:41:38.305Z,25.40
2023-12-20T07:42:38.557Z,25.33
2023-12-20T07:43:38.425Z,25.33
2023-12-20T07:44:38.523Z,25.37
2023-12-20T07:45:38.599Z,25.39
2023-12-20T07:46:38.743Z,25.44
2023-12-20T07:47:39.096Z,25.53
2023-12-20T07:48:38.811Z,25.57
2023-12-20T07:49:38.945Z,25.66
2023-12-20T07:50:38.906Z,25.72
2023-12-20T07:51:38.971Z,25.79
2023-12-20T07:52:39.070Z,25.81
2023-12-20T07:53:39.102Z,25.87
2023-12-20T07:54:39.108Z,25.93
2023-12-20T07:55:39.074Z,25.97
2023-12-20T07:56:39.098Z,26.01
2023-12-20T07:57:39.154Z,26.05
2023-12-20T07:58:49.650Z,26.07
2023-12-20T07:59:40.355Z,26.08
2023-12-20T08:00:39.234Z,26.12
2023-12-20T08:01:39.281Z,26.17
2023-12-20T08:02:39.266Z,26.20
2023-12-20T08:03:39.350Z,26.20
2023-12-20T08:04:39.303Z,26.21
2023-12-20T08:05:39.287Z,26.25
2023-12-20T08:06:39.346Z,26.28
2023-12-20T08:07:39.471Z,26.27
2023-12-20T08:08:39.413Z,26.31
2023-12-20T08:09:39.477Z,26.35
2023-12-20T08:10:39.536Z,26.34
2023-12-20T08:11:39.593Z,26.38
2023-12-20T08:12:40.109Z,26.42
2023-12-20T08:13:39.712Z,26.42
2023-12-20T08:14:39.758Z,26.44
2023-12-20T08:15:39.794Z,26.46
2023-12-20T08:16:39.851Z,26.48
2023-12-20T08:17:39.902Z,26.46
2023-12-20T08:18:39.921Z,26.51
2023-12-20T08:19:40.072Z,26.49
2023-12-20T08:20:41.218Z,26.52
2023-12-20T08:21:40.058Z,26.55
2023-12-20T08:22:40.087Z,26.52
2023-12-20T08:23:40.109Z,26.52
2023-12-20T08:24:40.203Z,26.58
2023-12-20T08:25:40.171Z,26.58
2023-12-20T08:26:40.215Z,26.60
2023-12-20T08:27:40.262Z,26.65
2023-12-20T08:28:40.261Z,26.68
2023-12-20T08:29:40.343Z,26.69
2023-12-20T08:30:40.392Z,26.65
2023-12-20T08:31:40.398Z,26.69
2023-12-20T08:32:40.623Z,26.69
2023-12-20T08:33:40.527Z,26.58
2023-12-20T08:34:40.525Z,26.12
2023-12-20T08:35:40.584Z,25.59
2023-12-20T08:36:40.628Z,24.81
2023-12-20T08:37:41.100Z,24.30
2023-12-20T08:38:40.740Z,24.04
2023-12-20T08:39:43.389Z,24.00
2023-12-20T08:40:40.956Z,24.00
2023-12-20T08:41:41.029Z,24.04
2023-12-20T08:42:41.078Z,24.14
2023-12-20T08:43:41.036Z,24.23
2023-12-20T08:44:42.583Z,24.38
2023-12-20T08:45:41.096Z,24.50
2023-12-20T08:46:41.108Z,24.61
2023-12-20T08:47:41.677Z,24.75
2023-12-20T08:48:41.378Z,24.86
2023-12-20T08:49:41.288Z,24.99
2023-12-20T08:50:41.418Z,25.09
2023-12-20T08:51:41.239Z,25.22
2023-12-20T08:52:41.236Z,25.30
2023-12-20T08:53:41.250Z,25.39
2023-12-20T08:54:42.661Z,25.52
2023-12-20T08:55:41.282Z,25.59
2023-12-20T08:56:41.327Z,25.64
2023-12-20T08:57:41.337Z,25.73
2023-12-20T08:58:41.362Z,25.81
2023-12-20T08:59:41.380Z,25.85
2023-12-20T09:00:41.394Z,25.91
2023-12-20T09:01:41.429Z,25.93
2023-12-20T09:02:41.436Z,25.97
2023-12-20T09:03:41.475Z,26.01
2023-12-20T09:04:41.560Z,26.01
2023-12-20T09:05:41.446Z,26.05
2023-12-20T09:06:41.495Z,26.08
2023-12-20T09:07:41.450Z,26.12
2023-12-20T09:08:41.443Z,26.17
2023-12-20T09:09:41.468Z,26.18
2023-12-20T09:10:41.537Z,26.21
2023-12-20T09:11:41.598Z,26.22
2023-12-20T09:12:41.656Z,26.22
2023-12-20T09:13:41.786Z,26.28
2023-12-20T09:14:41.805Z,26.31
2023-12-20T09:15:41.909Z,26.31
2023-12-20T09:16:41.932Z,26.34
2023-12-20T09:17:42.039Z,26.34
2023-12-20T09:18:42.044Z,26.36
2023-12-20T09:19:42.185Z,26.36
2023-12-20T09:20:44.172Z,26.35
2023-12-20T09:21:42.399Z,26.35
2023-12-20T09:22:42.446Z,26.41
2023-12-20T09:23:42.455Z,26.41
2023-12-20T09:24:42.581Z,26.41
2023-12-20T09:25:42.518Z,26.41
2023-12-20T09:26:42.582Z,26.44
2023-12-20T09:27:42.793Z,26.42
2023-12-20T09:28:43.181Z,26.45
2023-12-20T09:29:42.661Z,26.46
2023-12-20T09:30:42.944Z,26.12
2023-12-20T09:31:42.851Z,25.80
2023-12-20T09:32:43.964Z,25.53
2023-12-20T09:33:43.075Z,25.39
2023-12-20T09:34:43.201Z,25.30
2023-12-20T09:35:43.202Z,25.18
2023-12-20T09:36:43.038Z,24.85
2023-12-20T09:37:43.351Z,24.33
2023-12-20T09:38:45.688Z,23.92
2023-12-20T09:39:43.282Z,23.35
2023-12-20T09:40:43.355Z,22.54
2023-12-20T09:41:43.403Z,21.75
2023-12-20T09:42:43.528Z,20.93
2023-12-20T09:43:43.646Z,20.22
2023-12-20T09:44:45.966Z,19.54
2023-12-20T09:45:43.868Z,18.97
2023-12-20T09:46:43.886Z,18.61
2023-12-20T09:47:44.405Z,18.52
2023-12-20T09:48:44.178Z,18.67
2023-12-20T09:49:44.327Z,18.89
2023-12-20T09:50:47.390Z,19.15
2023-12-20T09:51:45.483Z,19.36
2023-12-20T09:52:44.540Z,19.33
2023-12-20T09:53:44.633Z,19.01
2023-12-20T09:54:44.817Z,19.05
2023-12-20T09:55:44.824Z,19.19
2023-12-20T09:56:46.625Z,19.37
2023-12-20T09:57:45.410Z,19.67
2023-12-20T09:58:45.164Z,19.98
2023-12-20T09:59:45.157Z,20.29
2023-12-20T10:00:45.296Z,20.63
2023-12-20T10:01:45.462Z,20.94
2023-12-20T10:02:45.312Z,21.26
2023-12-20T10:03:45.560Z,21.55
2023-12-20T10:04:45.474Z,21.85
2023-12-20T10:05:45.703Z,22.13
2023-12-20T10:06:45.635Z,22.39
2023-12-20T10:07:46.046Z,22.66
2023-12-20T10:08:45.624Z,22.87
2023-12-20T10:09:45.694Z,23.08
2023-12-20T10:10:48.384Z,23.28
2023-12-20T10:11:45.670Z,23.49
2023-12-20T10:12:47.781Z,23.68
2023-12-20T10:13:45.789Z,23.80
2023-12-20T10:14:45.846Z,23.99
2023-12-20T10:15:45.859Z,24.13
2023-12-20T10:16:45.851Z,24.24
2023-12-20T10:17:45.925Z,24.37
2023-12-20T10:18:46.159Z,24.48
2023-12-20T10:19:46.027Z,24.57
2023-12-20T10:20:45.916Z,24.67
2023-12-20T10:21:45.981Z,24.74
2023-12-20T10:22:45.948Z,24.82
2023-12-20T10:23:46.128Z,24.91
2023-12-20T10:24:45.992Z,24.99
2023-12-20T10:25:45.996Z,25.02
2023-12-20T10:26:46.060Z,25.11
2023-12-20T10:27:46.113Z,25.18
2023-12-20T10:28:46.081Z,25.25
2023-12-20T10:29:46.069Z,25.33
2023-12-20T10:30:46.269Z,25.36
2023-12-20T10:31:46.240Z,25.43
2023-12-20T10:32:46.241Z,25.49
2023-12-20T10:33:46.218Z,25.53
2023-12-20T10:34:46.220Z,25.57
2023-12-20T10:35:47.997Z,25.60
2023-12-20T10:36:46.187Z,25.64
2023-12-20T10:37:46.405Z,25.69
2023-12-20T10:38:46.239Z,25.73
2023-12-20T10:39:46.224Z,25.77
2023-12-20T10:40:46.322Z,25.80
2023-12-20T10:41:46.265Z,25.84
2023-12-20T10:42:46.334Z,25.90
2023-12-20T10:43:46.723Z,25.80
2023-12-20T10:44:46.313Z,25.66
2023-12-20T10:45:46.343Z,25.52
2023-12-20T10:46:46.373Z,25.42
2023-12-20T10:47:46.544Z,25.37
2023-12-20T10:48:46.585Z,25.34
2023-12-20T10:49:46.533Z,25.34
2023-12-20T10:50:46.484Z,25.39
2023-12-20T10:51:46.531Z,25.40
2023-12-20T10:52:46.585Z,25.46
2023-12-20T10:53:48.547Z,25.53
2023-12-20T10:54:46.786Z,25.54
2023-12-20T10:55:46.753Z,25.59
2023-12-20T10:56:46.706Z,25.67
2023-12-20T10:57:47.028Z,25.67
2023-12-20T10:58:46.753Z,25.74
2023-12-20T10:59:48.808Z,25.74
2023-12-20T11:00:46.895Z,25.79
2023-12-20T11:01:46.828Z,25.80
2023-12-20T11:02:46.809Z,25.83
2023-12-20T11:03:46.916Z,25.84
2023-12-20T11:04:46.886Z,25.88
2023-12-20T11:05:49.790Z,25.88
2023-12-20T11:06:47.050Z,25.91
2023-12-20T11:07:47.107Z,25.93
2023-12-20T11:08:47.158Z,25.97
2023-12-20T11:09:46.931Z,26.04
2023-12-20T11:10:46.869Z,26.05
2023-12-20T11:11:46.879Z,26.07
2023-12-20T11:12:47.049Z,26.08
2023-12-20T11:13:46.907Z,26.09
2023-12-20T11:14:47.206Z,26.12
2023-12-20T11:15:46.873Z,26.11
2023-12-20T11:16:52.597Z,26.12
2023-12-20T11:17:51.045Z,26.15
2023-12-20T11:18:47.113Z,26.15
2023-12-20T11:19:47.232Z,26.17
2023-12-20T11:20:47.208Z,26.18
2023-12-20T11:21:47.382Z,26.20
2023-12-20T11:22:47.592Z,26.21
2023-12-20T11:23:47.386Z,27.06
2023-12-20T11:24:47.766Z,26.85
2023-12-20T11:25:47.492Z,26.69
2023-12-20T11:26:47.590Z,26.63
2023-12-20T11:27:50.614Z,26.63
2023-12-20T11:28:47.715Z,26.72
2023-12-20T11:29:47.620Z,27.10
2023-12-20T11:30:47.773Z,27.89
2023-12-20T11:31:47.641Z,27.53
2023-12-20T11:32:47.623Z,27.36
2023-12-20T11:33:47.616Z,27.26
2023-12-20T11:34:47.717Z,27.16
2023-12-20T11:35:47.581Z,27.11
2023-12-20T11:36:47.715Z,27.03
2023-12-20T11:37:47.858Z,27.02
2023-12-20T11:38:47.598Z,27.00
2023-12-20T11:39:47.748Z,26.92
2023-12-20T11:40:47.582Z,26.83
2023-12-20T11:41:47.596Z,26.66
2023-12-20T11:42:47.617Z,26.53
2023-12-20T11:43:47.716Z,26.42
2023-12-20T11:44:47.674Z,26.27
2023-12-20T11:45:47.658Z,26.11
2023-12-20T11:46:47.660Z,26.00
2023-12-20T11:47:48.079Z,25.93
2023-12-20T11:48:47.824Z,25.98
2023-12-20T11:49:48.273Z,25.95
2023-12-20T11:50:47.790Z,25.93
2023-12-20T11:51:47.770Z,25.87
2023-12-20T11:52:47.775Z,25.87
2023-12-20T11:53:47.780Z,25.88
2023-12-20T11:54:47.844Z,25.95
2023-12-20T11:55:47.833Z,25.97
2023-12-20T11:56:47.805Z,25.95
2023-12-20T11:57:48.867Z,25.98
2023-12-20T11:58:50.159Z,26.00
2023-12-20T11:59:47.840Z,26.03
2023-12-20T12:00:47.902Z,26.30
2023-12-20T12:01:47.896Z,26.20
2023-12-20T12:02:50.052Z,26.18
2023-12-20T12:03:47.912Z,26.20
2023-12-20T12:04:48.286Z,26.17
2023-12-20T12:05:48.121Z,26.21
2023-12-20T12:06:48.216Z,26.41
2023-12-20T12:07:48.207Z,26.46
2023-12-20T12:08:48.086Z,26.46
2023-12-20T12:09:48.157Z,26.42
2023-12-20T12:10:48.207Z,26.35
2023-12-20T12:11:48.144Z,26.34
2023-12-20T12:12:48.490Z,26.66
2023-12-20T12:13:48.170Z,26.59
2023-12-20T12:14:48.239Z,26.56
2023-12-20T12:15:48.408Z,26.59
2023-12-20T12:16:48.334Z,26.60
2023-12-20T12:17:48.653Z,26.58
2023-12-20T12:18:48.469Z,26.59
2023-12-20T12:19:48.545Z,26.56
2023-12-20T12:20:48.744Z,26.55
2023-12-20T12:21:48.654Z,26.53
2023-12-20T12:22:48.973Z,26.51
2023-12-20T12:23:48.690Z,26.48
2023-12-20T12:24:48.833Z,26.46
2023-12-20T12:25:48.760Z,26.38
2023-12-20T12:26:48.736Z,26.30
2023-12-20T12:27:49.247Z,26.17
2023-12-20T12:28:48.944Z,26.05
2023-12-20T12:29:49.193Z,25.91
2023-12-20T12:30:54.074Z,25.77
2023-12-20T12:31:50.139Z,25.69
2023-12-20T12:32:49.252Z,25.63
2023-12-20T12:33:49.284Z,25.60
2023-12-20T12:34:49.306Z,25.57
2023-12-20T12:35:49.205Z,25.57
2023-12-20T12:36:49.301Z,25.49
2023-12-20T12:37:49.236Z,25.53
2023-12-20T12:38:49.275Z,25.54
2023-12-20T12:39:49.830Z,25.57
2023-12-20T12:40:50.201Z,25.63
2023-12-20T12:41:49.508Z,25.63
2023-12-20T12:42:49.611Z,25.64
2023-12-20T12:43:49.674Z,25.70
2023-12-20T12:44:50.228Z,25.70
2023-12-20T12:45:49.833Z,25.72
2023-12-20T12:46:49.950Z,25.74
2023-12-20T12:48:50.096Z,25.76
2023-12-20T12:49:50.110Z,25.79
2023-12-20T12:50:50.129Z,25.79
2023-12-20T12:51:50.241Z,25.83
2023-12-20T12:52:50.288Z,25.81
2023-12-20T12:53:50.280Z,25.83
2023-12-20T12:54:50.420Z,25.83